sensor_id;sensor_type;location;lat;lon;timestamp;P1;durP1;ratioP1;P2;durP2;ratioP2
81903;SDS011;71370;-33.792;151.032;2023-10-31T00:00:40;3.40;;;1.50;;
81903;SDS011;71370;-33.792;151.032;2023-10-31T00:01:47;4.50;;;1.00;;
81903;SDS011;71370;-33.792;151.032;2023-10-31T00:02:54;4.60;;;0.90;;
81903;SDS011;71370;-33.792;151.032;2023-10-31T00:04:01;4.90;;;1.10;;
81903;SDS011;71370;-33.792;151.032;2023-10-31T00:05:08;3.10;;;0.70;;
81903;SDS011;71370;-33.792;151.032;2023-10-31T00:06:15;3.00;;;0.60;;
81903;SDS011;71370;-33.792;151.032;2023-10-31T00:07:22;4.90;;;0.90;;
81903;SDS011;71370;-33.792;151.032;2023-10-31T00:08:29;3.90;;;0.70;;
81903;SDS011;71370;-33.792;151.032;2023-10-31T00:09:36;3.00;;;1.30;;
81903;SDS011;71370;-33.792;151.032;2023-10-31T00:10:44;2.60;;;1.10;;
81903;SDS011;71370;-33.792;151.032;2023-10-31T00:11:51;4.40;;;0.70;;
81903;SDS011;71370;-33.792;151.032;2023-10-31T00:12:58;2.70;;;0.70;;
81903;SDS011;71370;-33.792;151.032;2023-10-31T00:14:05;5.50;;;0.70;;
81903;SDS011;71370;-33.792;151.032;2023-10-31T00:15:12;4.40;;;1.30;;
81903;SDS011;71370;-33.792;151.032;2023-10-31T00:16:20;4.30;;;1.10;;
81903;SDS011;71370;-33.792;151.032;2023-10-31T00:17:27;2.40;;;0.50;;
81903;SDS011;71370;-33.792;151.032;2023-10-31T00:18:33;4.00;;;1.20;;
81903;SDS011;71370;-33.792;151.032;2023-10-31T00:19:40;3.40;;;0.80;;
81903;SDS011;71370;-33.792;151.032;2023-10-31T00:20:47;4.60;;;1.00;;
81903;SDS011;71370;-33.792;151.032;2023-10-31T00:21:54;4.20;;;0.80;;
81903;SDS011;71370;-33.792;151.032;2023-10-31T00:23:01;5.30;;;1.20;;
81903;SDS011;71370;-33.792;151.032;2023-10-31T00:24:08;3.40;;;0.80;;
81903;SDS011;71370;-33.792;151.032;2023-10-31T00:25:15;2.80;;;0.90;;
81903;SDS011;71370;-33.792;151.032;2023-10-31T00:26:22;3.10;;;0.80;;
81903;SDS011;71370;-33.792;151.032;2023-10-31T00:27:28;4.50;;;2.30;;
81903;SDS011;71370;-33.792;151.032;2023-10-31T00:28:36;2.00;;;0.60;;
81903;SDS011;71370;-33.792;151.032;2023-10-31T00:29:43;3.20;;;0.60;;
81903;SDS011;71370;-33.792;151.032;2023-10-31T00:30:49;3.00;;;1.00;;
81903;SDS011;71370;-33.792;151.032;2023-10-31T00:31:56;2.70;;;0.80;;
81903;SDS011;71370;-33.792;151.032;2023-10-31T00:33:03;3.10;;;1.00;;
81903;SDS011;71370;-33.792;151.032;2023-10-31T00:34:10;3.50;;;0.80;;
81903;SDS011;71370;-33.792;151.032;2023-10-31T00:35:17;2.10;;;0.60;;
81903;SDS011;71370;-33.792;151.032;2023-10-31T00:36:24;1.90;;;0.40;;
81903;SDS011;71370;-33.792;151.032;2023-10-31T00:37:31;2.40;;;0.80;;
81903;SDS011;71370;-33.792;151.032;2023-10-31T00:38:38;3.20;;;0.50;;
81903;SDS011;71370;-33.792;151.032;2023-10-31T00:39:44;2.80;;;0.60;;
81903;SDS011;71370;-33.792;151.032;2023-10-31T00:40:51;2.80;;;0.80;;
81903;SDS011;71370;-33.792;151.032;2023-10-31T00:41:58;4.30;;;1.00;;
81903;SDS011;71370;-33.792;151.032;2023-10-31T00:43:05;3.80;;;0.80;;
81903;SDS011;71370;-33.792;151.032;2023-10-31T00:44:12;2.70;;;0.80;;
81903;SDS011;71370;-33.792;151.032;2023-10-31T00:45:19;2.00;;;0.60;;
81903;SDS011;71370;-33.792;151.032;2023-10-31T00:46:26;4.50;;;0.60;;
81903;SDS011;71370;-33.792;151.032;2023-10-31T00:47:33;3.10;;;0.60;;
81903;SDS011;71370;-33.792;151.032;2023-10-31T00:48:41;3.40;;;1.00;;
81903;SDS011;71370;-33.792;151.032;2023-10-31T00:49:48;3.70;;;0.80;;
81903;SDS011;71370;-33.792;151.032;2023-10-31T00:50:55;4.00;;;1.00;;
81903;SDS011;71370;-33.792;151.032;2023-10-31T00:52:02;4.40;;;1.20;;
81903;SDS011;71370;-33.792;151.032;2023-10-31T00:53:09;2.40;;;0.60;;
81903;SDS011;71370;-33.792;151.032;2023-10-31T00:54:16;2.60;;;1.00;;
81903;SDS011;71370;-33.792;151.032;2023-10-31T00:55:23;3.20;;;1.00;;
81903;SDS011;71370;-33.792;151.032;2023-10-31T00:56:30;2.40;;;0.50;;
81903;SDS011;71370;-33.792;151.032;2023-10-31T00:57:37;3.30;;;0.70;;
81903;SDS011;71370;-33.792;151.032;2023-10-31T00:58:44;3.40;;;0.60;;
81903;SDS011;71370;-33.792;151.032;2023-10-31T00:59:51;2.20;;;0.90;;
81903;SDS011;71370;-33.792;151.032;2023-10-31T01:00:58;2.40;;;0.90;;
81903;SDS011;71370;-33.792;151.032;2023-10-31T01:02:05;2.00;;;0.80;;
81903;SDS011;71370;-33.792;151.032;2023-10-31T01:03:12;2.10;;;0.60;;
81903;SDS011;71370;-33.792;151.032;2023-10-31T01:04:19;2.40;;;1.10;;
81903;SDS011;71370;-33.792;151.032;2023-10-31T01:05:26;2.50;;;0.60;;
81903;SDS011;71370;-33.792;151.032;2023-10-31T01:06:33;2.90;;;0.80;;
81903;SDS011;71370;-33.792;151.032;2023-10-31T01:07:45;1.70;;;0.70;;
81903;SDS011;71370;-33.792;151.032;2023-10-31T01:08:52;3.80;;;0.60;;
81903;SDS011;71370;-33.792;151.032;2023-10-31T01:09:59;2.70;;;0.60;;
81903;SDS011;71370;-33.792;151.032;2023-10-31T01:11:06;3.00;;;0.90;;
81903;SDS011;71370;-33.792;151.032;2023-10-31T01:12:13;1.60;;;0.50;;
81903;SDS011;71370;-33.792;151.032;2023-10-31T01:13:20;2.90;;;0.70;;
81903;SDS011;71370;-33.792;151.032;2023-10-31T01:14:26;1.90;;;0.70;;
81903;SDS011;71370;-33.792;151.032;2023-10-31T01:15:33;2.00;;;0.90;;
81903;SDS011;71370;-33.792;151.032;2023-10-31T01:16:40;2.30;;;0.60;;
81903;SDS011;71370;-33.792;151.032;2023-10-31T01:17:47;2.20;;;0.50;;
81903;SDS011;71370;-33.792;151.032;2023-10-31T01:18:54;2.40;;;0.70;;
81903;SDS011;71370;-33.792;151.032;2023-10-31T01:20:01;4.10;;;0.60;;
81903;SDS011;71370;-33.792;151.032;2023-10-31T01:21:08;2.00;;;0.60;;
81903;SDS011;71370;-33.792;151.032;2023-10-31T01:22:15;1.70;;;0.30;;
81903;SDS011;71370;-33.792;151.032;2023-10-31T01:23:22;2.30;;;0.60;;
81903;SDS011;71370;-33.792;151.032;2023-10-31T01:24:29;1.40;;;0.40;;
81903;SDS011;71370;-33.792;151.032;2023-10-31T01:25:36;1.70;;;0.20;;
81903;SDS011;71370;-33.792;151.032;2023-10-31T01:26:43;1.60;;;0.30;;
81903;SDS011;71370;-33.792;151.032;2023-10-31T01:27:49;1.30;;;0.40;;
81903;SDS011;71370;-33.792;151.032;2023-10-31T01:28:57;1.20;;;0.40;;
81903;SDS011;71370;-33.792;151.032;2023-10-31T01:30:04;1.80;;;0.50;;
81903;SDS011;71370;-33.792;151.032;2023-10-31T01:31:11;2.20;;;0.20;;
81903;SDS011;71370;-33.792;151.032;2023-10-31T01:32:18;1.90;;;0.40;;
81903;SDS011;71370;-33.792;151.032;2023-10-31T01:33:24;1.30;;;0.60;;
81903;SDS011;71370;-33.792;151.032;2023-10-31T01:34:31;3.20;;;1.00;;
81903;SDS011;71370;-33.792;151.032;2023-10-31T01:35:38;2.10;;;0.40;;
81903;SDS011;71370;-33.792;151.032;2023-10-31T01:36:45;2.50;;;0.50;;
81903;SDS011;71370;-33.792;151.032;2023-10-31T01:37:52;1.20;;;0.30;;
81903;SDS011;71370;-33.792;151.032;2023-10-31T01:38:59;1.40;;;0.60;;
81903;SDS011;71370;-33.792;151.032;2023-10-31T01:40:06;3.40;;;0.30;;
81903;SDS011;71370;-33.792;151.032;2023-10-31T01:41:13;1.30;;;0.40;;
81903;SDS011;71370;-33.792;151.032;2023-10-31T01:42:20;2.50;;;0.50;;
81903;SDS011;71370;-33.792;151.032;2023-10-31T01:43:34;3.70;;;0.50;;
81903;SDS011;71370;-33.792;151.032;2023-10-31T01:44:42;2.50;;;0.40;;
81903;SDS011;71370;-33.792;151.032;2023-10-31T01:45:49;1.80;;;0.40;;
81903;SDS011;71370;-33.792;151.032;2023-10-31T01:46:56;0.90;;;0.30;;
81903;SDS011;71370;-33.792;151.032;2023-10-31T01:48:03;3.70;;;0.50;;
81903;SDS011;71370;-33.792;151.032;2023-10-31T01:49:10;1.00;;;0.30;;
81903;SDS011;71370;-33.792;151.032;2023-10-31T01:50:18;1.40;;;0.40;;
81903;SDS011;71370;-33.792;151.032;2023-10-31T01:51:25;1.40;;;0.30;;
81903;SDS011;71370;-33.792;151.032;2023-10-31T01:52:34;2.10;;;0.20;;
81903;SDS011;71370;-33.792;151.032;2023-10-31T01:53:41;3.00;;;0.80;;
81903;SDS011;71370;-33.792;151.032;2023-10-31T01:54:48;2.40;;;0.50;;
81903;SDS011;71370;-33.792;151.032;2023-10-31T01:55:56;1.50;;;0.60;;
81903;SDS011;71370;-33.792;151.032;2023-10-31T01:57:04;4.30;;;0.50;;
81903;SDS011;71370;-33.792;151.032;2023-10-31T01:58:11;1.30;;;0.20;;
81903;SDS011;71370;-33.792;151.032;2023-10-31T01:59:19;2.30;;;0.40;;
81903;SDS011;71370;-33.792;151.032;2023-10-31T02:00:26;1.60;;;0.50;;
81903;SDS011;71370;-33.792;151.032;2023-10-31T02:01:35;1.20;;;0.30;;
81903;SDS011;71370;-33.792;151.032;2023-10-31T02:02:47;3.20;;;1.60;;
81903;SDS011;71370;-33.792;151.032;2023-10-31T02:03:58;2.10;;;0.40;;
81903;SDS011;71370;-33.792;151.032;2023-10-31T02:05:06;3.00;;;0.30;;
81903;SDS011;71370;-33.792;151.032;2023-10-31T02:06:13;1.20;;;0.60;;
81903;SDS011;71370;-33.792;151.032;2023-10-31T02:07:20;0.90;;;0.40;;
81903;SDS011;71370;-33.792;151.032;2023-10-31T02:08:27;3.10;;;0.60;;
81903;SDS011;71370;-33.792;151.032;2023-10-31T02:09:34;0.80;;;0.50;;
81903;SDS011;71370;-33.792;151.032;2023-10-31T02:10:41;1.30;;;0.40;;
81903;SDS011;71370;-33.792;151.032;2023-10-31T02:11:48;1.30;;;0.50;;
81903;SDS011;71370;-33.792;151.032;2023-10-31T02:12:55;1.60;;;0.30;;
81903;SDS011;71370;-33.792;151.032;2023-10-31T02:14:02;0.80;;;0.20;;
81903;SDS011;71370;-33.792;151.032;2023-10-31T02:15:09;3.40;;;0.30;;
81903;SDS011;71370;-33.792;151.032;2023-10-31T02:16:17;1.90;;;0.20;;
81903;SDS011;71370;-33.792;151.032;2023-10-31T02:17:24;1.60;;;0.50;;
81903;SDS011;71370;-33.792;151.032;2023-10-31T02:18:30;1.80;;;0.60;;
81903;SDS011;71370;-33.792;151.032;2023-10-31T02:19:38;1.30;;;0.40;;
81903;SDS011;71370;-33.792;151.032;2023-10-31T02:20:45;1.30;;;0.60;;
81903;SDS011;71370;-33.792;151.032;2023-10-31T02:21:51;1.90;;;0.90;;
81903;SDS011;71370;-33.792;151.032;2023-10-31T02:22:58;1.90;;;0.70;;
81903;SDS011;71370;-33.792;151.032;2023-10-31T02:24:06;1.40;;;0.50;;
81903;SDS011;71370;-33.792;151.032;2023-10-31T02:25:16;0.90;;;0.30;;
81903;SDS011;71370;-33.792;151.032;2023-10-31T02:26:23;2.10;;;0.90;;
81903;SDS011;71370;-33.792;151.032;2023-10-31T02:27:34;2.40;;;0.60;;
81903;SDS011;71370;-33.792;151.032;2023-10-31T02:28:41;2.80;;;0.50;;
81903;SDS011;71370;-33.792;151.032;2023-10-31T02:29:48;1.10;;;0.60;;
81903;SDS011;71370;-33.792;151.032;2023-10-31T02:30:55;0.70;;;0.30;;
81903;SDS011;71370;-33.792;151.032;2023-10-31T02:32:02;2.20;;;0.60;;
81903;SDS011;71370;-33.792;151.032;2023-10-31T02:33:09;2.30;;;0.90;;
81903;SDS011;71370;-33.792;151.032;2023-10-31T02:34:15;1.70;;;0.90;;
81903;SDS011;71370;-33.792;151.032;2023-10-31T02:35:22;1.30;;;0.30;;
81903;SDS011;71370;-33.792;151.032;2023-10-31T02:36:29;2.30;;;0.90;;
81903;SDS011;71370;-33.792;151.032;2023-10-31T02:37:36;1.70;;;0.50;;
81903;SDS011;71370;-33.792;151.032;2023-10-31T02:38:43;3.00;;;0.50;;
81903;SDS011;71370;-33.792;151.032;2023-10-31T02:39:50;1.40;;;0.90;;
81903;SDS011;71370;-33.792;151.032;2023-10-31T02:40:57;1.50;;;0.30;;
81903;SDS011;71370;-33.792;151.032;2023-10-31T02:42:04;1.90;;;0.90;;
81903;SDS011;71370;-33.792;151.032;2023-10-31T02:43:11;1.70;;;1.20;;
81903;SDS011;71370;-33.792;151.032;2023-10-31T02:44:18;1.90;;;0.70;;
81903;SDS011;71370;-33.792;151.032;2023-10-31T02:45:25;1.50;;;0.50;;
81903;SDS011;71370;-33.792;151.032;2023-10-31T02:46:32;0.90;;;0.30;;
81903;SDS011;71370;-33.792;151.032;2023-10-31T02:47:39;1.50;;;0.30;;
81903;SDS011;71370;-33.792;151.032;2023-10-31T02:48:46;1.80;;;1.00;;
81903;SDS011;71370;-33.792;151.032;2023-10-31T02:49:52;2.80;;;0.90;;
81903;SDS011;71370;-33.792;151.032;2023-10-31T02:50:59;2.00;;;0.40;;
81903;SDS011;71370;-33.792;151.032;2023-10-31T02:52:06;1.70;;;0.70;;
81903;SDS011;71370;-33.792;151.032;2023-10-31T02:53:13;1.90;;;0.80;;
81903;SDS011;71370;-33.792;151.032;2023-10-31T02:54:20;1.20;;;0.40;;
81903;SDS011;71370;-33.792;151.032;2023-10-31T02:55:27;3.00;;;0.80;;
81903;SDS011;71370;-33.792;151.032;2023-10-31T02:56:34;0.80;;;0.50;;
81903;SDS011;71370;-33.792;151.032;2023-10-31T02:57:40;1.50;;;0.30;;
81903;SDS011;71370;-33.792;151.032;2023-10-31T02:58:47;2.20;;;0.80;;
81903;SDS011;71370;-33.792;151.032;2023-10-31T02:59:54;3.20;;;1.00;;
81903;SDS011;71370;-33.792;151.032;2023-10-31T03:01:01;1.50;;;0.40;;
81903;SDS011;71370;-33.792;151.032;2023-10-31T03:02:08;0.90;;;0.60;;
81903;SDS011;71370;-33.792;151.032;2023-10-31T03:03:16;1.00;;;0.20;;
81903;SDS011;71370;-33.792;151.032;2023-10-31T03:04:23;1.40;;;0.20;;
81903;SDS011;71370;-33.792;151.032;2023-10-31T03:05:30;2.60;;;0.30;;
81903;SDS011;71370;-33.792;151.032;2023-10-31T03:06:37;1.00;;;0.40;;
81903;SDS011;71370;-33.792;151.032;2023-10-31T03:07:44;1.20;;;0.30;;
81903;SDS011;71370;-33.792;151.032;2023-10-31T03:08:51;1.90;;;0.40;;
81903;SDS011;71370;-33.792;151.032;2023-10-31T03:09:58;1.30;;;0.20;;
81903;SDS011;71370;-33.792;151.032;2023-10-31T03:11:05;2.70;;;0.50;;
81903;SDS011;71370;-33.792;151.032;2023-10-31T03:12:12;2.20;;;0.50;;
81903;SDS011;71370;-33.792;151.032;2023-10-31T03:13:19;3.20;;;0.50;;
81903;SDS011;71370;-33.792;151.032;2023-10-31T03:14:26;1.90;;;0.60;;
81903;SDS011;71370;-33.792;151.032;2023-10-31T03:15:33;1.90;;;0.80;;
81903;SDS011;71370;-33.792;151.032;2023-10-31T03:16:40;2.10;;;0.80;;
81903;SDS011;71370;-33.792;151.032;2023-10-31T03:17:47;2.20;;;0.30;;
81903;SDS011;71370;-33.792;151.032;2023-10-31T03:18:54;2.20;;;0.70;;
81903;SDS011;71370;-33.792;151.032;2023-10-31T03:20:01;2.50;;;0.30;;
81903;SDS011;71370;-33.792;151.032;2023-10-31T03:21:08;1.70;;;1.10;;
81903;SDS011;71370;-33.792;151.032;2023-10-31T03:22:15;2.10;;;0.40;;
81903;SDS011;71370;-33.792;151.032;2023-10-31T03:23:21;1.40;;;0.50;;
81903;SDS011;71370;-33.792;151.032;2023-10-31T03:24:28;2.50;;;0.70;;
81903;SDS011;71370;-33.792;151.032;2023-10-31T03:25:35;2.70;;;0.50;;
81903;SDS011;71370;-33.792;151.032;2023-10-31T03:26:42;2.50;;;0.60;;
81903;SDS011;71370;-33.792;151.032;2023-10-31T03:27:49;1.90;;;0.30;;
81903;SDS011;71370;-33.792;151.032;2023-10-31T03:28:56;2.10;;;0.70;;
81903;SDS011;71370;-33.792;151.032;2023-10-31T03:30:03;0.90;;;0.30;;
81903;SDS011;71370;-33.792;151.032;2023-10-31T03:31:11;1.90;;;0.30;;
81903;SDS011;71370;-33.792;151.032;2023-10-31T03:32:19;2.30;;;0.70;;
81903;SDS011;71370;-33.792;151.032;2023-10-31T03:33:25;1.60;;;0.40;;
81903;SDS011;71370;-33.792;151.032;2023-10-31T03:34:32;3.10;;;0.30;;
81903;SDS011;71370;-33.792;151.032;2023-10-31T03:35:39;2.00;;;0.80;;
81903;SDS011;71370;-33.792;151.032;2023-10-31T03:36:46;2.00;;;0.80;;
81903;SDS011;71370;-33.792;151.032;2023-10-31T03:37:53;3.30;;;0.40;;
81903;SDS011;71370;-33.792;151.032;2023-10-31T03:39:00;1.30;;;0.20;;
81903;SDS011;71370;-33.792;151.032;2023-10-31T03:40:08;3.00;;;0.70;;
81903;SDS011;71370;-33.792;151.032;2023-10-31T03:41:15;3.00;;;1.20;;
81903;SDS011;71370;-33.792;151.032;2023-10-31T03:42:22;2.40;;;0.60;;
81903;SDS011;71370;-33.792;151.032;2023-10-31T03:43:29;1.50;;;0.50;;
81903;SDS011;71370;-33.792;151.032;2023-10-31T03:44:36;3.10;;;1.20;;
81903;SDS011;71370;-33.792;151.032;2023-10-31T03:45:43;1.40;;;0.40;;
81903;SDS011;71370;-33.792;151.032;2023-10-31T03:46:49;2.80;;;0.40;;
81903;SDS011;71370;-33.792;151.032;2023-10-31T03:47:57;2.90;;;0.50;;
81903;SDS011;71370;-33.792;151.032;2023-10-31T03:49:04;2.70;;;0.80;;
81903;SDS011;71370;-33.792;151.032;2023-10-31T03:50:13;1.90;;;0.80;;
81903;SDS011;71370;-33.792;151.032;2023-10-31T03:51:19;1.60;;;0.50;;
81903;SDS011;71370;-33.792;151.032;2023-10-31T03:52:26;4.40;;;0.70;;
81903;SDS011;71370;-33.792;151.032;2023-10-31T03:53:33;4.70;;;0.60;;
81903;SDS011;71370;-33.792;151.032;2023-10-31T03:54:40;1.10;;;0.40;;
81903;SDS011;71370;-33.792;151.032;2023-10-31T03:55:47;1.70;;;0.30;;
81903;SDS011;71370;-33.792;151.032;2023-10-31T03:56:54;0.80;;;0.20;;
81903;SDS011;71370;-33.792;151.032;2023-10-31T03:58:01;1.90;;;0.60;;
81903;SDS011;71370;-33.792;151.032;2023-10-31T03:59:08;2.90;;;0.60;;
81903;SDS011;71370;-33.792;151.032;2023-10-31T04:00:15;8.20;;;1.50;;
81903;SDS011;71370;-33.792;151.032;2023-10-31T04:01:22;7.30;;;1.90;;
81903;SDS011;71370;-33.792;151.032;2023-10-31T04:02:29;11.50;;;1.90;;
81903;SDS011;71370;-33.792;151.032;2023-10-31T04:03:36;12.00;;;2.20;;
81903;SDS011;71370;-33.792;151.032;2023-10-31T04:04:43;9.10;;;3.20;;
81903;SDS011;71370;-33.792;151.032;2023-10-31T04:05:50;8.30;;;1.90;;
81903;SDS011;71370;-33.792;151.032;2023-10-31T04:06:57;10.80;;;2.40;;
81903;SDS011;71370;-33.792;151.032;2023-10-31T04:08:04;10.10;;;1.80;;
81903;SDS011;71370;-33.792;151.032;2023-10-31T04:09:11;8.50;;;1.50;;
81903;SDS011;71370;-33.792;151.032;2023-10-31T04:10:19;11.10;;;2.40;;
81903;SDS011;71370;-33.792;151.032;2023-10-31T04:11:26;7.80;;;1.40;;
81903;SDS011;71370;-33.792;151.032;2023-10-31T04:12:33;10.40;;;1.90;;
81903;SDS011;71370;-33.792;151.032;2023-10-31T04:13:40;7.40;;;1.70;;
81903;SDS011;71370;-33.792;151.032;2023-10-31T04:14:47;8.80;;;2.10;;
81903;SDS011;71370;-33.792;151.032;2023-10-31T04:15:54;10.50;;;2.60;;
81903;SDS011;71370;-33.792;151.032;2023-10-31T04:17:01;11.10;;;2.10;;
81903;SDS011;71370;-33.792;151.032;2023-10-31T04:18:09;8.60;;;2.00;;
81903;SDS011;71370;-33.792;151.032;2023-10-31T04:19:16;8.20;;;1.40;;
81903;SDS011;71370;-33.792;151.032;2023-10-31T04:20:23;10.50;;;2.10;;
81903;SDS011;71370;-33.792;151.032;2023-10-31T04:21:30;10.60;;;2.00;;
81903;SDS011;71370;-33.792;151.032;2023-10-31T04:22:37;12.60;;;1.90;;
81903;SDS011;71370;-33.792;151.032;2023-10-31T04:23:43;6.90;;;1.80;;
81903;SDS011;71370;-33.792;151.032;2023-10-31T04:24:50;9.10;;;1.40;;
81903;SDS011;71370;-33.792;151.032;2023-10-31T04:25:57;6.90;;;1.80;;
81903;SDS011;71370;-33.792;151.032;2023-10-31T04:27:04;7.70;;;1.80;;
81903;SDS011;71370;-33.792;151.032;2023-10-31T04:28:12;11.90;;;2.20;;
81903;SDS011;71370;-33.792;151.032;2023-10-31T04:29:20;9.60;;;2.00;;
81903;SDS011;71370;-33.792;151.032;2023-10-31T04:30:27;9.00;;;1.60;;
81903;SDS011;71370;-33.792;151.032;2023-10-31T04:31:34;8.50;;;1.60;;
81903;SDS011;71370;-33.792;151.032;2023-10-31T04:32:41;9.60;;;2.70;;
81903;SDS011;71370;-33.792;151.032;2023-10-31T04:33:48;9.80;;;1.60;;
81903;SDS011;71370;-33.792;151.032;2023-10-31T04:34:55;7.40;;;2.10;;
81903;SDS011;71370;-33.792;151.032;2023-10-31T04:36:02;9.30;;;1.90;;
81903;SDS011;71370;-33.792;151.032;2023-10-31T04:37:09;7.80;;;2.00;;
81903;SDS011;71370;-33.792;151.032;2023-10-31T04:38:16;9.40;;;2.20;;
81903;SDS011;71370;-33.792;151.032;2023-10-31T04:39:23;8.90;;;1.90;;
81903;SDS011;71370;-33.792;151.032;2023-10-31T04:40:30;7.70;;;2.20;;
81903;SDS011;71370;-33.792;151.032;2023-10-31T04:41:37;6.90;;;1.40;;
81903;SDS011;71370;-33.792;151.032;2023-10-31T04:42:45;8.80;;;1.50;;
81903;SDS011;71370;-33.792;151.032;2023-10-31T04:43:53;7.60;;;2.00;;
81903;SDS011;71370;-33.792;151.032;2023-10-31T04:45:00;8.60;;;1.60;;
81903;SDS011;71370;-33.792;151.032;2023-10-31T04:46:07;9.80;;;2.00;;
81903;SDS011;71370;-33.792;151.032;2023-10-31T04:47:14;8.90;;;1.90;;
81903;SDS011;71370;-33.792;151.032;2023-10-31T04:48:21;8.80;;;1.80;;
81903;SDS011;71370;-33.792;151.032;2023-10-31T04:49:28;8.60;;;1.70;;
81903;SDS011;71370;-33.792;151.032;2023-10-31T04:50:35;9.90;;;1.90;;
81903;SDS011;71370;-33.792;151.032;2023-10-31T04:51:42;8.20;;;2.60;;
81903;SDS011;71370;-33.792;151.032;2023-10-31T04:52:49;10.40;;;1.50;;
81903;SDS011;71370;-33.792;151.032;2023-10-31T04:53:56;6.50;;;1.40;;
81903;SDS011;71370;-33.792;151.032;2023-10-31T04:55:03;6.40;;;1.70;;
81903;SDS011;71370;-33.792;151.032;2023-10-31T04:56:13;7.90;;;2.20;;
81903;SDS011;71370;-33.792;151.032;2023-10-31T04:57:21;8.40;;;1.40;;
81903;SDS011;71370;-33.792;151.032;2023-10-31T04:58:27;8.70;;;1.50;;
81903;SDS011;71370;-33.792;151.032;2023-10-31T04:59:34;10.10;;;1.90;;
81903;SDS011;71370;-33.792;151.032;2023-10-31T05:00:41;9.10;;;2.20;;
81903;SDS011;71370;-33.792;151.032;2023-10-31T05:01:50;7.70;;;1.90;;
81903;SDS011;71370;-33.792;151.032;2023-10-31T05:02:57;7.80;;;1.90;;
81903;SDS011;71370;-33.792;151.032;2023-10-31T05:04:06;6.50;;;1.70;;
81903;SDS011;71370;-33.792;151.032;2023-10-31T05:05:14;8.80;;;1.60;;
81903;SDS011;71370;-33.792;151.032;2023-10-31T05:06:21;8.70;;;2.00;;
81903;SDS011;71370;-33.792;151.032;2023-10-31T05:07:29;7.30;;;1.30;;
81903;SDS011;71370;-33.792;151.032;2023-10-31T05:08:37;7.80;;;1.40;;
81903;SDS011;71370;-33.792;151.032;2023-10-31T05:09:44;8.40;;;1.30;;
81903;SDS011;71370;-33.792;151.032;2023-10-31T05:10:51;10.10;;;1.60;;
81903;SDS011;71370;-33.792;151.032;2023-10-31T05:11:58;7.20;;;1.40;;
81903;SDS011;71370;-33.792;151.032;2023-10-31T05:13:05;10.40;;;1.70;;
81903;SDS011;71370;-33.792;151.032;2023-10-31T05:14:12;7.20;;;1.70;;
81903;SDS011;71370;-33.792;151.032;2023-10-31T05:15:19;9.70;;;1.70;;
81903;SDS011;71370;-33.792;151.032;2023-10-31T05:16:26;7.40;;;1.10;;
81903;SDS011;71370;-33.792;151.032;2023-10-31T05:17:33;10.90;;;2.10;;
81903;SDS011;71370;-33.792;151.032;2023-10-31T05:18:40;11.50;;;1.40;;
81903;SDS011;71370;-33.792;151.032;2023-10-31T05:19:47;9.30;;;1.40;;
81903;SDS011;71370;-33.792;151.032;2023-10-31T05:20:54;6.90;;;1.50;;
81903;SDS011;71370;-33.792;151.032;2023-10-31T05:22:01;9.30;;;1.70;;
81903;SDS011;71370;-33.792;151.032;2023-10-31T05:23:08;9.90;;;1.70;;
81903;SDS011;71370;-33.792;151.032;2023-10-31T05:24:15;6.80;;;1.60;;
81903;SDS011;71370;-33.792;151.032;2023-10-31T05:25:22;8.90;;;1.50;;
81903;SDS011;71370;-33.792;151.032;2023-10-31T05:26:29;7.00;;;1.80;;
81903;SDS011;71370;-33.792;151.032;2023-10-31T05:27:36;7.90;;;1.30;;
81903;SDS011;71370;-33.792;151.032;2023-10-31T05:28:42;5.70;;;1.10;;
81903;SDS011;71370;-33.792;151.032;2023-10-31T05:29:49;7.00;;;1.30;;
81903;SDS011;71370;-33.792;151.032;2023-10-31T05:30:56;8.30;;;1.40;;
81903;SDS011;71370;-33.792;151.032;2023-10-31T05:32:03;6.90;;;1.50;;
81903;SDS011;71370;-33.792;151.032;2023-10-31T05:33:10;6.10;;;1.70;;
81903;SDS011;71370;-33.792;151.032;2023-10-31T05:34:17;6.50;;;1.50;;
81903;SDS011;71370;-33.792;151.032;2023-10-31T05:35:24;8.40;;;2.00;;
81903;SDS011;71370;-33.792;151.032;2023-10-31T05:36:31;7.30;;;1.00;;
81903;SDS011;71370;-33.792;151.032;2023-10-31T05:37:38;7.80;;;1.60;;
81903;SDS011;71370;-33.792;151.032;2023-10-31T05:38:45;7.70;;;1.40;;
81903;SDS011;71370;-33.792;151.032;2023-10-31T05:39:52;5.10;;;1.00;;
81903;SDS011;71370;-33.792;151.032;2023-10-31T05:40:59;8.20;;;1.40;;
81903;SDS011;71370;-33.792;151.032;2023-10-31T05:42:06;7.10;;;1.30;;
81903;SDS011;71370;-33.792;151.032;2023-10-31T05:43:13;6.80;;;1.60;;
81903;SDS011;71370;-33.792;151.032;2023-10-31T05:44:20;6.50;;;1.60;;
81903;SDS011;71370;-33.792;151.032;2023-10-31T05:45:27;8.60;;;1.90;;
81903;SDS011;71370;-33.792;151.032;2023-10-31T05:46:39;7.30;;;2.00;;
81903;SDS011;71370;-33.792;151.032;2023-10-31T05:47:46;6.70;;;1.20;;
81903;SDS011;71370;-33.792;151.032;2023-10-31T05:48:54;8.10;;;1.40;;
81903;SDS011;71370;-33.792;151.032;2023-10-31T05:50:00;8.00;;;2.10;;
81903;SDS011;71370;-33.792;151.032;2023-10-31T05:51:11;6.70;;;1.60;;
81903;SDS011;71370;-33.792;151.032;2023-10-31T05:52:22;5.10;;;1.60;;
81903;SDS011;71370;-33.792;151.032;2023-10-31T05:53:28;7.90;;;1.90;;
81903;SDS011;71370;-33.792;151.032;2023-10-31T05:54:39;7.10;;;1.70;;
81903;SDS011;71370;-33.792;151.032;2023-10-31T05:55:46;7.80;;;2.00;;
81903;SDS011;71370;-33.792;151.032;2023-10-31T05:56:53;9.90;;;1.40;;
81903;SDS011;71370;-33.792;151.032;2023-10-31T05:58:00;6.20;;;0.80;;
81903;SDS011;71370;-33.792;151.032;2023-10-31T05:59:07;7.60;;;1.60;;
81903;SDS011;71370;-33.792;151.032;2023-10-31T06:00:14;6.80;;;1.20;;
81903;SDS011;71370;-33.792;151.032;2023-10-31T06:01:21;7.00;;;1.50;;
81903;SDS011;71370;-33.792;151.032;2023-10-31T06:02:28;7.50;;;1.50;;
81903;SDS011;71370;-33.792;151.032;2023-10-31T06:03:35;8.30;;;1.10;;
81903;SDS011;71370;-33.792;151.032;2023-10-31T06:04:42;8.80;;;1.70;;
81903;SDS011;71370;-33.792;151.032;2023-10-31T06:05:49;8.40;;;2.80;;
81903;SDS011;71370;-33.792;151.032;2023-10-31T06:06:56;9.30;;;1.50;;
81903;SDS011;71370;-33.792;151.032;2023-10-31T06:08:04;5.50;;;1.50;;
81903;SDS011;71370;-33.792;151.032;2023-10-31T06:09:11;10.00;;;1.30;;
81903;SDS011;71370;-33.792;151.032;2023-10-31T06:10:19;7.00;;;1.00;;
81903;SDS011;71370;-33.792;151.032;2023-10-31T06:11:27;6.40;;;1.00;;
81903;SDS011;71370;-33.792;151.032;2023-10-31T06:12:34;6.70;;;1.10;;
81903;SDS011;71370;-33.792;151.032;2023-10-31T06:13:40;8.60;;;1.50;;
81903;SDS011;71370;-33.792;151.032;2023-10-31T06:14:47;5.70;;;1.20;;
81903;SDS011;71370;-33.792;151.032;2023-10-31T06:15:54;5.80;;;1.70;;
81903;SDS011;71370;-33.792;151.032;2023-10-31T06:17:02;7.80;;;1.40;;
81903;SDS011;71370;-33.792;151.032;2023-10-31T06:18:09;7.40;;;1.20;;
81903;SDS011;71370;-33.792;151.032;2023-10-31T06:19:16;8.50;;;1.10;;
81903;SDS011;71370;-33.792;151.032;2023-10-31T06:20:23;5.10;;;0.90;;
81903;SDS011;71370;-33.792;151.032;2023-10-31T06:21:30;5.80;;;1.20;;
81903;SDS011;71370;-33.792;151.032;2023-10-31T06:22:37;8.00;;;2.00;;
81903;SDS011;71370;-33.792;151.032;2023-10-31T06:23:44;6.20;;;1.40;;
81903;SDS011;71370;-33.792;151.032;2023-10-31T06:24:51;7.30;;;2.10;;
81903;SDS011;71370;-33.792;151.032;2023-10-31T06:25:59;5.90;;;1.30;;
81903;SDS011;71370;-33.792;151.032;2023-10-31T06:27:05;6.10;;;1.70;;